sensor_id;sensor_type;location;lat;lon;timestamp;P1;durP1;ratioP1;P2;durP2;ratioP2
57023;SDS011;42916;54.346;18.562;2023-09-18T00:00:58;21.50;;;14.30;;
57023;SDS011;42916;54.346;18.562;2023-09-18T00:03:38;25.00;;;14.90;;
57023;SDS011;42916;54.346;18.562;2023-09-18T00:06:05;23.90;;;14.10;;
57023;SDS011;42916;54.346;18.562;2023-09-18T00:08:31;24.40;;;14.10;;
57023;SDS011;42916;54.346;18.562;2023-09-18T00:10:58;22.40;;;14.00;;
57023;SDS011;42916;54.346;18.562;2023-09-18T00:13:26;23.40;;;15.00;;
57023;SDS011;42916;54.346;18.562;2023-09-18T00:15:56;25.40;;;15.40;;
57023;SDS011;42916;54.346;18.562;2023-09-18T00:18:26;26.20;;;16.50;;
57023;SDS011;42916;54.346;18.562;2023-09-18T00:20:53;23.70;;;14.60;;
57023;SDS011;42916;54.346;18.562;2023-09-18T00:23:20;22.40;;;14.80;;
57023;SDS011;42916;54.346;18.562;2023-09-18T00:25:47;24.20;;;14.40;;
57023;SDS011;42916;54.346;18.562;2023-09-18T00:28:14;24.30;;;14.00;;
57023;SDS011;42916;54.346;18.562;2023-09-18T00:30:47;18.40;;;13.50;;
57023;SDS011;42916;54.346;18.562;2023-09-18T00:33:16;19.80;;;13.30;;
57023;SDS011;42916;54.346;18.562;2023-09-18T00:35:46;24.50;;;14.70;;
57023;SDS011;42916;54.346;18.562;2023-09-18T00:38:14;22.80;;;14.70;;
57023;SDS011;42916;54.346;18.562;2023-09-18T00:40:42;20.00;;;14.30;;
57023;SDS011;42916;54.346;18.562;2023-09-18T00:43:09;24.20;;;14.60;;
57023;SDS011;42916;54.346;18.562;2023-09-18T00:45:41;26.20;;;15.50;;
57023;SDS011;42916;54.346;18.562;2023-09-18T00:48:10;23.80;;;15.40;;
57023;SDS011;42916;54.346;18.562;2023-09-18T00:50:38;26.60;;;15.20;;
57023;SDS011;42916;54.346;18.562;2023-09-18T00:53:07;23.90;;;13.80;;
57023;SDS011;42916;54.346;18.562;2023-09-18T00:55:38;24.10;;;14.80;;
57023;SDS011;42916;54.346;18.562;2023-09-18T00:58:06;20.90;;;14.10;;
57023;SDS011;42916;54.346;18.562;2023-09-18T01:00:33;31.30;;;16.70;;
57023;SDS011;42916;54.346;18.562;2023-09-18T01:03:01;23.60;;;15.30;;
57023;SDS011;42916;54.346;18.562;2023-09-18T01:05:33;25.60;;;17.00;;
57023;SDS011;42916;54.346;18.562;2023-09-18T01:08:00;54.90;;;42.60;;
57023;SDS011;42916;54.346;18.562;2023-09-18T01:10:29;38.80;;;26.00;;
57023;SDS011;42916;54.346;18.562;2023-09-18T01:15:42;48.70;;;35.50;;
57023;SDS011;42916;54.346;18.562;2023-09-18T01:18:14;49.50;;;35.10;;
57023;SDS011;42916;54.346;18.562;2023-09-18T01:20:43;45.10;;;33.20;;
57023;SDS011;42916;54.346;18.562;2023-09-18T01:23:11;49.80;;;32.50;;
57023;SDS011;42916;54.346;18.562;2023-09-18T01:25:41;41.90;;;28.60;;
57023;SDS011;42916;54.346;18.562;2023-09-18T01:28:08;38.20;;;26.00;;
57023;SDS011;42916;54.346;18.562;2023-09-18T01:30:35;37.50;;;24.90;;
57023;SDS011;42916;54.346;18.562;2023-09-18T01:33:02;35.60;;;23.40;;
57023;SDS011;42916;54.346;18.562;2023-09-18T01:35:31;34.20;;;22.50;;
57023;SDS011;42916;54.346;18.562;2023-09-18T01:38:00;34.30;;;22.30;;
57023;SDS011;42916;54.346;18.562;2023-09-18T01:40:27;30.50;;;21.70;;
57023;SDS011;42916;54.346;18.562;2023-09-18T01:42:54;32.40;;;20.50;;
57023;SDS011;42916;54.346;18.562;2023-09-18T01:45:21;31.20;;;19.00;;
57023;SDS011;42916;54.346;18.562;2023-09-18T01:47:48;26.60;;;17.10;;
57023;SDS011;42916;54.346;18.562;2023-09-18T01:50:15;23.90;;;17.10;;
57023;SDS011;42916;54.346;18.562;2023-09-18T01:52:42;31.40;;;17.50;;
57023;SDS011;42916;54.346;18.562;2023-09-18T01:55:09;25.20;;;17.20;;
57023;SDS011;42916;54.346;18.562;2023-09-18T01:57:36;24.40;;;17.20;;
57023;SDS011;42916;54.346;18.562;2023-09-18T02:00:03;26.20;;;16.30;;
57023;SDS011;42916;54.346;18.562;2023-09-18T02:02:39;26.50;;;16.60;;
57023;SDS011;42916;54.346;18.562;2023-09-18T02:05:06;26.00;;;17.20;;
57023;SDS011;42916;54.346;18.562;2023-09-18T02:07:33;24.80;;;15.90;;
57023;SDS011;42916;54.346;18.562;2023-09-18T02:10:00;22.80;;;15.70;;
57023;SDS011;42916;54.346;18.562;2023-09-18T02:12:27;25.00;;;17.30;;
57023;SDS011;42916;54.346;18.562;2023-09-18T02:14:53;24.30;;;15.40;;
57023;SDS011;42916;54.346;18.562;2023-09-18T02:17:23;24.10;;;15.00;;
57023;SDS011;42916;54.346;18.562;2023-09-18T02:19:50;25.70;;;15.80;;
57023;SDS011;42916;54.346;18.562;2023-09-18T02:22:18;21.60;;;15.10;;
57023;SDS011;42916;54.346;18.562;2023-09-18T02:24:44;20.00;;;13.70;;
57023;SDS011;42916;54.346;18.562;2023-09-18T02:27:11;22.10;;;14.30;;
57023;SDS011;42916;54.346;18.562;2023-09-18T02:29:38;22.10;;;13.90;;
57023;SDS011;42916;54.346;18.562;2023-09-18T02:32:05;22.10;;;14.70;;
57023;SDS011;42916;54.346;18.562;2023-09-18T02:34:31;25.90;;;16.20;;
57023;SDS011;42916;54.346;18.562;2023-09-18T02:36:59;24.10;;;15.10;;
57023;SDS011;42916;54.346;18.562;2023-09-18T02:39:26;21.60;;;14.00;;
57023;SDS011;42916;54.346;18.562;2023-09-18T02:41:54;23.00;;;14.30;;
57023;SDS011;42916;54.346;18.562;2023-09-18T02:44:20;24.60;;;14.40;;
57023;SDS011;42916;54.346;18.562;2023-09-18T02:46:47;21.20;;;13.70;;
57023;SDS011;42916;54.346;18.562;2023-09-18T02:49:14;22.80;;;14.90;;
57023;SDS011;42916;54.346;18.562;2023-09-18T02:51:41;22.70;;;13.90;;
57023;SDS011;42916;54.346;18.562;2023-09-18T02:54:08;21.50;;;14.30;;
57023;SDS011;42916;54.346;18.562;2023-09-18T02:56:34;20.50;;;12.90;;
57023;SDS011;42916;54.346;18.562;2023-09-18T02:59:01;21.50;;;13.20;;
57023;SDS011;42916;54.346;18.562;2023-09-18T03:01:28;20.20;;;13.60;;
57023;SDS011;42916;54.346;18.562;2023-09-18T03:03:55;23.10;;;14.80;;
57023;SDS011;42916;54.346;18.562;2023-09-18T03:06:22;22.80;;;14.90;;
57023;SDS011;42916;54.346;18.562;2023-09-18T03:08:49;22.40;;;15.30;;
57023;SDS011;42916;54.346;18.562;2023-09-18T03:11:17;22.40;;;14.90;;
57023;SDS011;42916;54.346;18.562;2023-09-18T03:13:44;23.70;;;14.50;;
57023;SDS011;42916;54.346;18.562;2023-09-18T03:16:16;22.30;;;13.70;;
57023;SDS011;42916;54.346;18.562;2023-09-18T03:18:44;20.30;;;13.50;;
57023;SDS011;42916;54.346;18.562;2023-09-18T03:21:10;20.80;;;14.20;;
57023;SDS011;42916;54.346;18.562;2023-09-18T03:23:37;21.10;;;12.80;;
57023;SDS011;42916;54.346;18.562;2023-09-18T03:26:04;19.50;;;12.50;;
57023;SDS011;42916;54.346;18.562;2023-09-18T03:28:31;20.80;;;13.80;;
57023;SDS011;42916;54.346;18.562;2023-09-18T03:30:58;19.60;;;13.50;;
57023;SDS011;42916;54.346;18.562;2023-09-18T03:33:25;21.70;;;13.60;;
57023;SDS011;42916;54.346;18.562;2023-09-18T03:35:52;19.50;;;12.60;;
57023;SDS011;42916;54.346;18.562;2023-09-18T03:38:24;19.60;;;12.30;;
57023;SDS011;42916;54.346;18.562;2023-09-18T03:40:51;18.50;;;12.30;;
57023;SDS011;42916;54.346;18.562;2023-09-18T03:43:18;17.70;;;12.00;;
57023;SDS011;42916;54.346;18.562;2023-09-18T03:45:45;17.90;;;11.40;;
57023;SDS011;42916;54.346;18.562;2023-09-18T03:48:12;16.70;;;12.10;;
57023;SDS011;42916;54.346;18.562;2023-09-18T03:50:39;17.50;;;12.20;;
57023;SDS011;42916;54.346;18.562;2023-09-18T03:53:06;18.00;;;12.00;;
57023;SDS011;42916;54.346;18.562;2023-09-18T03:55:32;20.10;;;12.40;;
57023;SDS011;42916;54.346;18.562;2023-09-18T03:57:59;17.70;;;11.40;;
57023;SDS011;42916;54.346;18.562;2023-09-18T04:00:27;19.30;;;12.70;;
57023;SDS011;42916;54.346;18.562;2023-09-18T04:02:54;19.70;;;12.30;;
57023;SDS011;42916;54.346;18.562;2023-09-18T04:05:20;17.70;;;11.40;;
57023;SDS011;42916;54.346;18.562;2023-09-18T04:07:47;16.90;;;11.30;;
57023;SDS011;42916;54.346;18.562;2023-09-18T04:10:14;18.80;;;12.30;;
57023;SDS011;42916;54.346;18.562;2023-09-18T04:12:46;16.50;;;11.50;;
57023;SDS011;42916;54.346;18.562;2023-09-18T04:15:15;16.70;;;11.30;;
57023;SDS011;42916;54.346;18.562;2023-09-18T04:17:44;19.10;;;11.30;;
57023;SDS011;42916;54.346;18.562;2023-09-18T04:20:11;17.60;;;11.00;;
57023;SDS011;42916;54.346;18.562;2023-09-18T04:22:43;16.80;;;11.30;;
57023;SDS011;42916;54.346;18.562;2023-09-18T04:25:12;15.50;;;10.80;;
57023;SDS011;42916;54.346;18.562;2023-09-18T04:27:39;15.50;;;11.70;;
57023;SDS011;42916;54.346;18.562;2023-09-18T04:30:06;16.40;;;10.80;;
57023;SDS011;42916;54.346;18.562;2023-09-18T04:35:03;17.50;;;11.70;;
57023;SDS011;42916;54.346;18.562;2023-09-18T04:40:03;17.70;;;11.70;;
57023;SDS011;42916;54.346;18.562;2023-09-18T04:42:31;15.80;;;10.80;;
57023;SDS011;42916;54.346;18.562;2023-09-18T04:44:58;17.20;;;12.00;;
57023;SDS011;42916;54.346;18.562;2023-09-18T04:47:25;15.90;;;10.30;;
57023;SDS011;42916;54.346;18.562;2023-09-18T04:49:52;15.90;;;10.90;;
57023;SDS011;42916;54.346;18.562;2023-09-18T04:52:18;16.70;;;11.50;;
57023;SDS011;42916;54.346;18.562;2023-09-18T04:54:45;18.40;;;10.90;;
57023;SDS011;42916;54.346;18.562;2023-09-18T04:57:12;20.00;;;12.10;;
57023;SDS011;42916;54.346;18.562;2023-09-18T04:59:39;18.20;;;11.90;;
57023;SDS011;42916;54.346;18.562;2023-09-18T05:02:06;20.50;;;13.00;;
57023;SDS011;42916;54.346;18.562;2023-09-18T05:04:32;22.00;;;14.20;;
57023;SDS011;42916;54.346;18.562;2023-09-18T05:06:59;23.20;;;13.10;;
57023;SDS011;42916;54.346;18.562;2023-09-18T05:09:28;20.90;;;13.40;;
57023;SDS011;42916;54.346;18.562;2023-09-18T05:11:55;25.50;;;14.60;;
57023;SDS011;42916;54.346;18.562;2023-09-18T05:14:21;20.70;;;13.20;;
57023;SDS011;42916;54.346;18.562;2023-09-18T05:16:48;19.50;;;13.40;;
57023;SDS011;42916;54.346;18.562;2023-09-18T05:19:15;21.90;;;12.70;;
57023;SDS011;42916;54.346;18.562;2023-09-18T05:21:41;21.40;;;13.20;;
57023;SDS011;42916;54.346;18.562;2023-09-18T05:24:09;20.50;;;13.20;;
57023;SDS011;42916;54.346;18.562;2023-09-18T05:26:36;19.50;;;13.00;;
57023;SDS011;42916;54.346;18.562;2023-09-18T05:29:03;19.90;;;12.30;;
57023;SDS011;42916;54.346;18.562;2023-09-18T05:31:30;18.30;;;11.90;;
57023;SDS011;42916;54.346;18.562;2023-09-18T05:33:57;18.20;;;11.90;;
57023;SDS011;42916;54.346;18.562;2023-09-18T05:36:23;18.40;;;11.90;;
57023;SDS011;42916;54.346;18.562;2023-09-18T05:38:50;18.10;;;12.90;;
57023;SDS011;42916;54.346;18.562;2023-09-18T05:41:17;19.10;;;12.90;;
57023;SDS011;42916;54.346;18.562;2023-09-18T05:43:44;17.70;;;13.00;;
57023;SDS011;42916;54.346;18.562;2023-09-18T05:46:10;18.80;;;12.20;;
57023;SDS011;42916;54.346;18.562;2023-09-18T05:48:37;17.80;;;11.80;;
57023;SDS011;42916;54.346;18.562;2023-09-18T05:51:04;20.10;;;12.50;;
57023;SDS011;42916;54.346;18.562;2023-09-18T05:53:30;24.10;;;13.50;;
57023;SDS011;42916;54.346;18.562;2023-09-18T05:55:57;21.90;;;13.70;;
57023;SDS011;42916;54.346;18.562;2023-09-18T05:58:33;21.20;;;13.20;;
57023;SDS011;42916;54.346;18.562;2023-09-18T06:00:59;17.00;;;11.70;;
57023;SDS011;42916;54.346;18.562;2023-09-18T06:03:27;16.80;;;12.60;;
57023;SDS011;42916;54.346;18.562;2023-09-18T06:05:56;19.00;;;12.30;;
57023;SDS011;42916;54.346;18.562;2023-09-18T06:08:23;19.70;;;11.80;;
57023;SDS011;42916;54.346;18.562;2023-09-18T06:10:52;14.50;;;10.90;;
57023;SDS011;42916;54.346;18.562;2023-09-18T06:13:20;16.40;;;11.90;;
57023;SDS011;42916;54.346;18.562;2023-09-18T06:15:47;16.70;;;10.70;;
57023;SDS011;42916;54.346;18.562;2023-09-18T06:18:14;15.00;;;10.80;;
57023;SDS011;42916;54.346;18.562;2023-09-18T06:20:41;15.30;;;11.50;;
57023;SDS011;42916;54.346;18.562;2023-09-18T06:23:10;16.70;;;12.70;;
57023;SDS011;42916;54.346;18.562;2023-09-18T06:25:37;17.70;;;12.40;;
57023;SDS011;42916;54.346;18.562;2023-09-18T06:28:04;16.50;;;11.90;;
57023;SDS011;42916;54.346;18.562;2023-09-18T06:30:31;18.40;;;11.40;;
57023;SDS011;42916;54.346;18.562;2023-09-18T06:33:00;15.00;;;11.30;;
57023;SDS011;42916;54.346;18.562;2023-09-18T06:35:27;14.40;;;11.00;;
57023;SDS011;42916;54.346;18.562;2023-09-18T06:37:54;14.40;;;10.70;;
57023;SDS011;42916;54.346;18.562;2023-09-18T06:40:24;16.30;;;11.30;;
57023;SDS011;42916;54.346;18.562;2023-09-18T06:42:57;16.20;;;10.80;;
57023;SDS011;42916;54.346;18.562;2023-09-18T06:45:24;18.60;;;12.20;;
57023;SDS011;42916;54.346;18.562;2023-09-18T06:47:51;16.00;;;12.30;;
57023;SDS011;42916;54.346;18.562;2023-09-18T06:50:19;18.80;;;12.90;;
57023;SDS011;42916;54.346;18.562;2023-09-18T06:52:46;22.80;;;13.90;;
57023;SDS011;42916;54.346;18.562;2023-09-18T06:55:13;22.80;;;14.70;;
57023;SDS011;42916;54.346;18.562;2023-09-18T06:57:40;20.70;;;14.90;;
57023;SDS011;42916;54.346;18.562;2023-09-18T07:00:07;18.50;;;14.00;;
57023;SDS011;42916;54.346;18.562;2023-09-18T07:02:35;16.70;;;13.10;;
57023;SDS011;42916;54.346;18.562;2023-09-18T07:05:01;17.90;;;13.00;;
57023;SDS011;42916;54.346;18.562;2023-09-18T07:07:28;22.00;;;13.80;;
57023;SDS011;42916;54.346;18.562;2023-09-18T07:09:55;17.70;;;13.40;;
57023;SDS011;42916;54.346;18.562;2023-09-18T07:12:21;18.00;;;13.30;;
57023;SDS011;42916;54.346;18.562;2023-09-18T07:14:49;17.70;;;12.90;;
57023;SDS011;42916;54.346;18.562;2023-09-18T07:17:15;17.00;;;11.90;;
57023;SDS011;42916;54.346;18.562;2023-09-18T07:19:42;16.90;;;12.90;;
57023;SDS011;42916;54.346;18.562;2023-09-18T07:22:09;18.60;;;12.20;;
57023;SDS011;42916;54.346;18.562;2023-09-18T07:24:36;17.20;;;12.10;;
57023;SDS011;42916;54.346;18.562;2023-09-18T07:27:07;15.50;;;11.80;;
57023;SDS011;42916;54.346;18.562;2023-09-18T07:29:33;15.60;;;12.00;;
57023;SDS011;42916;54.346;18.562;2023-09-18T07:32:01;18.90;;;11.90;;
57023;SDS011;42916;54.346;18.562;2023-09-18T07:34:28;15.20;;;11.60;;
57023;SDS011;42916;54.346;18.562;2023-09-18T07:36:55;14.70;;;10.90;;
57023;SDS011;42916;54.346;18.562;2023-09-18T07:39:23;16.20;;;11.30;;
57023;SDS011;42916;54.346;18.562;2023-09-18T07:41:49;15.20;;;12.30;;
57023;SDS011;42916;54.346;18.562;2023-09-18T07:44:20;17.60;;;12.10;;
57023;SDS011;42916;54.346;18.562;2023-09-18T07:46:47;18.40;;;12.70;;
57023;SDS011;42916;54.346;18.562;2023-09-18T07:49:14;17.80;;;12.20;;
57023;SDS011;42916;54.346;18.562;2023-09-18T07:51:41;16.40;;;11.10;;
57023;SDS011;42916;54.346;18.562;2023-09-18T07:54:08;12.90;;;10.00;;
57023;SDS011;42916;54.346;18.562;2023-09-18T07:56:35;13.60;;;10.60;;
57023;SDS011;42916;54.346;18.562;2023-09-18T07:59:02;15.50;;;11.30;;
57023;SDS011;42916;54.346;18.562;2023-09-18T08:01:29;16.50;;;11.60;;
57023;SDS011;42916;54.346;18.562;2023-09-18T08:06:26;14.90;;;11.80;;
57023;SDS011;42916;54.346;18.562;2023-09-18T08:08:52;17.70;;;11.50;;
57023;SDS011;42916;54.346;18.562;2023-09-18T08:11:19;17.20;;;12.60;;
57023;SDS011;42916;54.346;18.562;2023-09-18T08:13:46;13.80;;;10.50;;
57023;SDS011;42916;54.346;18.562;2023-09-18T08:16:13;15.70;;;10.80;;
57023;SDS011;42916;54.346;18.562;2023-09-18T08:18:40;14.10;;;10.60;;
57023;SDS011;42916;54.346;18.562;2023-09-18T08:21:07;14.90;;;11.50;;
57023;SDS011;42916;54.346;18.562;2023-09-18T08:23:35;14.50;;;11.00;;
57023;SDS011;42916;54.346;18.562;2023-09-18T08:26:02;14.10;;;10.50;;
57023;SDS011;42916;54.346;18.562;2023-09-18T08:28:30;11.00;;;9.80;;
57023;SDS011;42916;54.346;18.562;2023-09-18T08:30:56;12.50;;;9.40;;
57023;SDS011;42916;54.346;18.562;2023-09-18T08:33:25;11.80;;;9.20;;
57023;SDS011;42916;54.346;18.562;2023-09-18T08:35:52;11.90;;;9.40;;
57023;SDS011;42916;54.346;18.562;2023-09-18T08:38:19;12.40;;;9.20;;
57023;SDS011;42916;54.346;18.562;2023-09-18T08:40:45;12.60;;;9.00;;
57023;SDS011;42916;54.346;18.562;2023-09-18T08:43:14;13.50;;;10.10;;
57023;SDS011;42916;54.346;18.562;2023-09-18T08:45:46;10.30;;;8.40;;
57023;SDS011;42916;54.346;18.562;2023-09-18T08:48:18;11.10;;;8.40;;
57023;SDS011;42916;54.346;18.562;2023-09-18T08:50:49;13.20;;;8.90;;
57023;SDS011;42916;54.346;18.562;2023-09-18T08:53:17;12.40;;;9.70;;
57023;SDS011;42916;54.346;18.562;2023-09-18T08:55:44;15.30;;;10.20;;
57023;SDS011;42916;54.346;18.562;2023-09-18T08:58:11;13.20;;;9.50;;
57023;SDS011;42916;54.346;18.562;2023-09-18T09:00:38;12.20;;;9.70;;
57023;SDS011;42916;54.346;18.562;2023-09-18T09:03:04;11.20;;;9.30;;
57023;SDS011;42916;54.346;18.562;2023-09-18T09:05:32;11.50;;;9.60;;
57023;SDS011;42916;54.346;18.562;2023-09-18T09:07:59;11.10;;;9.20;;
57023;SDS011;42916;54.346;18.562;2023-09-18T09:10:27;12.50;;;9.10;;
57023;SDS011;42916;54.346;18.562;2023-09-18T09:15:23;11.80;;;8.70;;
57023;SDS011;42916;54.346;18.562;2023-09-18T09:17:52;11.20;;;9.40;;
57023;SDS011;42916;54.346;18.562;2023-09-18T09:20:29;15.50;;;9.90;;
57023;SDS011;42916;54.346;18.562;2023-09-18T09:23:00;11.70;;;9.20;;
57023;SDS011;42916;54.346;18.562;2023-09-18T09:25:28;13.40;;;9.10;;
57023;SDS011;42916;54.346;18.562;2023-09-18T09:27:58;11.30;;;8.40;;
57023;SDS011;42916;54.346;18.562;2023-09-18T09:32:55;12.50;;;8.70;;
57023;SDS011;42916;54.346;18.562;2023-09-18T09:35:29;15.60;;;9.00;;
57023;SDS011;42916;54.346;18.562;2023-09-18T09:37:58;12.70;;;9.10;;
57023;SDS011;42916;54.346;18.562;2023-09-18T09:40:30;11.20;;;9.10;;
57023;SDS011;42916;54.346;18.562;2023-09-18T09:42:58;10.40;;;9.20;;
57023;SDS011;42916;54.346;18.562;2023-09-18T09:45:28;11.10;;;8.80;;
57023;SDS011;42916;54.346;18.562;2023-09-18T09:47:57;12.60;;;9.50;;
57023;SDS011;42916;54.346;18.562;2023-09-18T09:50:24;10.60;;;8.70;;
57023;SDS011;42916;54.346;18.562;2023-09-18T09:52:53;9.70;;;8.30;;
57023;SDS011;42916;54.346;18.562;2023-09-18T09:57:57;13.40;;;9.00;;
57023;SDS011;42916;54.346;18.562;2023-09-18T10:00:28;11.90;;;8.30;;
57023;SDS011;42916;54.346;18.562;2023-09-18T10:03:16;13.30;;;8.40;;
57023;SDS011;42916;54.346;18.562;2023-09-18T10:05:44;8.70;;;7.80;;
57023;SDS011;42916;54.346;18.562;2023-09-18T10:08:17;12.20;;;8.10;;
57023;SDS011;42916;54.346;18.562;2023-09-18T10:16:13;8.70;;;7.80;;
57023;SDS011;42916;54.346;18.562;2023-09-18T10:18:57;9.90;;;7.50;;
57023;SDS011;42916;54.346;18.562;2023-09-18T10:24:30;8.80;;;7.50;;
57023;SDS011;42916;54.346;18.562;2023-09-18T10:27:01;7.70;;;6.90;;
57023;SDS011;42916;54.346;18.562;2023-09-18T10:29:30;8.70;;;7.20;;
57023;SDS011;42916;54.346;18.562;2023-09-18T10:32:02;10.00;;;7.70;;
57023;SDS011;42916;54.346;18.562;2023-09-18T10:34:30;9.60;;;6.80;;
57023;SDS011;42916;54.346;18.562;2023-09-18T10:37:00;11.20;;;7.60;;
57023;SDS011;42916;54.346;18.562;2023-09-18T10:39:36;9.00;;;6.70;;
57023;SDS011;42916;54.346;18.562;2023-09-18T10:42:06;7.50;;;6.60;;
57023;SDS011;42916;54.346;18.562;2023-09-18T10:44:34;8.60;;;6.50;;
57023;SDS011;42916;54.346;18.562;2023-09-18T10:47:03;10.90;;;6.80;;
57023;SDS011;42916;54.346;18.562;2023-09-18T10:49:32;7.10;;;6.10;;
57023;SDS011;42916;54.346;18.562;2023-09-18T10:52:01;7.30;;;6.50;;
57023;SDS011;42916;54.346;18.562;2023-09-18T10:54:30;7.00;;;5.40;;
57023;SDS011;42916;54.346;18.562;2023-09-18T10:56:57;7.10;;;6.10;;
57023;SDS011;42916;54.346;18.562;2023-09-18T10:59:24;7.80;;;6.00;;
57023;SDS011;42916;54.346;18.562;2023-09-18T11:01:53;7.20;;;6.10;;
57023;SDS011;42916;54.346;18.562;2023-09-18T11:04:21;9.70;;;5.70;;
57023;SDS011;42916;54.346;18.562;2023-09-18T11:09:25;6.20;;;5.00;;
57023;SDS011;42916;54.346;18.562;2023-09-18T11:14:45;7.20;;;5.90;;
57023;SDS011;42916;54.346;18.562;2023-09-18T11:22:35;7.90;;;5.20;;
57023;SDS011;42916;54.346;18.562;2023-09-18T11:27:53;9.40;;;5.10;;
57023;SDS011;42916;54.346;18.562;2023-09-18T11:30:23;7.60;;;4.80;;
57023;SDS011;42916;54.346;18.562;2023-09-18T11:32:53;7.70;;;5.40;;
57023;SDS011;42916;54.346;18.562;2023-09-18T11:35:21;6.20;;;4.60;;
57023;SDS011;42916;54.346;18.562;2023-09-18T11:38:02;8.60;;;5.20;;
57023;SDS011;42916;54.346;18.562;2023-09-18T11:40:32;6.00;;;4.90;;
57023;SDS011;42916;54.346;18.562;2023-09-18T11:45:42;6.90;;;4.90;;
57023;SDS011;42916;54.346;18.562;2023-09-18T11:48:09;6.00;;;5.00;;
57023;SDS011;42916;54.346;18.562;2023-09-18T11:50:38;6.40;;;4.70;;
57023;SDS011;42916;54.346;18.562;2023-09-18T11:53:08;6.60;;;5.50;;
57023;SDS011;42916;54.346;18.562;2023-09-18T11:55:35;5.70;;;5.10;;
57023;SDS011;42916;54.346;18.562;2023-09-18T11:58:04;4.80;;;4.30;;
57023;SDS011;42916;54.346;18.562;2023-09-18T12:00:31;6.10;;;4.70;;
57023;SDS011;42916;54.346;18.562;2023-09-18T12:02:58;7.50;;;4.60;;
57023;SDS011;42916;54.346;18.562;2023-09-18T12:05:43;5.40;;;4.40;;
57023;SDS011;42916;54.346;18.562;2023-09-18T12:08:11;5.10;;;4.50;;
57023;SDS011;42916;54.346;18.562;2023-09-18T12:10:38;5.90;;;4.50;;
57023;SDS011;42916;54.346;18.562;2023-09-18T12:13:06;6.60;;;4.10;;
57023;SDS011;42916;54.346;18.562;2023-09-18T12:15:38;6.10;;;4.50;;
57023;SDS011;42916;54.346;18.562;2023-09-18T12:18:07;5.00;;;4.40;;
57023;SDS011;42916;54.346;18.562;2023-09-18T12:20:35;7.40;;;3.80;;
57023;SDS011;42916;54.346;18.562;2023-09-18T12:23:03;5.00;;;4.50;;
57023;SDS011;42916;54.346;18.562;2023-09-18T12:25:30;4.80;;;4.30;;
57023;SDS011;42916;54.346;18.562;2023-09-18T12:27:57;5.90;;;4.20;;
57023;SDS011;42916;54.346;18.562;2023-09-18T12:30:26;5.50;;;4.20;;
57023;SDS011;42916;54.346;18.562;2023-09-18T12:32:53;5.70;;;4.00;;
57023;SDS011;42916;54.346;18.562;2023-09-18T12:35:26;4.40;;;4.00;;
57023;SDS011;42916;54.346;18.562;2023-09-18T12:37:59;5.90;;;4.60;;
57023;SDS011;42916;54.346;18.562;2023-09-18T12:40:27;7.40;;;4.30;;
57023;SDS011;42916;54.346;18.562;2023-09-18T12:42:59;9.10;;;4.70;;
57023;SDS011;42916;54.346;18.562;2023-09-18T12:47:56;4.30;;;3.90;;
57023;SDS011;42916;54.346;18.562;2023-09-18T12:50:24;4.20;;;3.60;;
57023;SDS011;42916;54.346;18.562;2023-09-18T12:52:51;5.90;;;4.20;;
57023;SDS011;42916;54.346;18.562;2023-09-18T12:55:25;4.40;;;3.90;;
57023;SDS011;42916;54.346;18.562;2023-09-18T12:57:53;4.40;;;3.80;;
57023;SDS011;42916;54.346;18.562;2023-09-18T13:00:20;5.30;;;3.90;;
57023;SDS011;42916;54.346;18.562;2023-09-18T13:02:49;5.10;;;4.00;;
57023;SDS011;42916;54.346;18.562;2023-09-18T13:05:23;5.80;;;4.10;;
57023;SDS011;42916;54.346;18.562;2023-09-18T13:07:52;4.80;;;3.90;;
57023;SDS011;42916;54.346;18.562;2023-09-18T13:10:20;4.20;;;3.80;;
57023;SDS011;42916;54.346;18.562;2023-09-18T13:12:49;5.30;;;3.70;;
57023;SDS011;42916;54.346;18.562;2023-09-18T13:15:28;5.80;;;3.90;;
57023;SDS011;42916;54.346;18.562;2023-09-18T13:18:00;4.80;;;4.00;;
57023;SDS011;42916;54.346;18.562;2023-09-18T13:20:35;4.90;;;3.70;;
57023;SDS011;42916;54.346;18.562;2023-09-18T13:23:02;5.60;;;4.00;;
57023;SDS011;42916;54.346;18.562;2023-09-18T13:25:31;7.20;;;4.00;;
57023;SDS011;42916;54.346;18.562;2023-09-18T13:28:04;6.60;;;4.00;;
57023;SDS011;42916;54.346;18.562;2023-09-18T13:30:32;7.30;;;4.30;;
57023;SDS011;42916;54.346;18.562;2023-09-18T13:33:02;5.10;;;3.70;;
57023;SDS011;42916;54.346;18.562;2023-09-18T13:35:30;6.30;;;3.70;;
57023;SDS011;42916;54.346;18.562;2023-09-18T13:37:57;4.40;;;3.80;;
57023;SDS011;42916;54.346;18.562;2023-09-18T13:40:24;4.90;;;4.00;;
57023;SDS011;42916;54.346;18.562;2023-09-18T13:42:51;6.30;;;4.10;;
57023;SDS011;42916;54.346;18.562;2023-09-18T13:45:18;6.30;;;4.10;;
57023;SDS011;42916;54.346;18.562;2023-09-18T13:47:45;5.70;;;3.60;;
57023;SDS011;42916;54.346;18.562;2023-09-18T13:50:11;7.10;;;3.70;;
57023;SDS011;42916;54.346;18.562;2023-09-18T13:52:39;3.90;;;3.60;;
57023;SDS011;42916;54.346;18.562;2023-09-18T13:55:06;4.70;;;3.50;;
57023;SDS011;42916;54.346;18.562;2023-09-18T13:57:35;4.40;;;3.90;;
57023;SDS011;42916;54.346;18.562;2023-09-18T14:00:03;7.00;;;4.10;;
57023;SDS011;42916;54.346;18.562;2023-09-18T14:02:38;5.80;;;3.80;;
57023;SDS011;42916;54.346;18.562;2023-09-18T14:05:06;8.30;;;4.10;;
57023;SDS011;42916;54.346;18.562;2023-09-18T14:07:35;10.90;;;4.10;;
57023;SDS011;42916;54.346;18.562;2023-09-18T14:10:06;7.20;;;4.50;;
57023;SDS011;42916;54.346;18.562;2023-09-18T14:12:34;8.60;;;4.50;;
57023;SDS011;42916;54.346;18.562;2023-09-18T14:15:01;7.60;;;4.10;;
57023;SDS011;42916;54.346;18.562;2023-09-18T14:17:27;5.00;;;4.20;;
57023;SDS011;42916;54.346;18.562;2023-09-18T14:19:54;7.50;;;4.40;;
57023;SDS011;42916;54.346;18.562;2023-09-18T14:22:21;6.00;;;4.30;;
57023;SDS011;42916;54.346;18.562;2023-09-18T14:24:48;5.30;;;3.90;;
57023;SDS011;42916;54.346;18.562;2023-09-18T14:27:15;7.50;;;4.60;;
57023;SDS011;42916;54.346;18.562;2023-09-18T14:29:41;4.80;;;4.40;;
57023;SDS011;42916;54.346;18.562;2023-09-18T14:32:08;6.00;;;4.40;;
57023;SDS011;42916;54.346;18.562;2023-09-18T14:34:35;6.10;;;4.80;;
57023;SDS011;42916;54.346;18.562;2023-09-18T14:37:02;7.40;;;5.00;;
57023;SDS011;42916;54.346;18.562;2023-09-18T14:39:32;11.10;;;5.00;;
57023;SDS011;42916;54.346;18.562;2023-09-18T14:42:00;7.60;;;4.70;;
57023;SDS011;42916;54.346;18.562;2023-09-18T14:44:27;6.40;;;5.20;;
57023;SDS011;42916;54.346;18.562;2023-09-18T14:46:54;7.10;;;5.20;;
57023;SDS011;42916;54.346;18.562;2023-09-18T14:49:21;9.70;;;4.80;;
57023;SDS011;42916;54.346;18.562;2023-09-18T14:51:48;8.90;;;5.50;;
57023;SDS011;42916;54.346;18.562;2023-09-18T14:54:16;10.50;;;6.10;;
57023;SDS011;42916;54.346;18.562;2023-09-18T14:56:43;9.10;;;5.80;;
57023;SDS011;42916;54.346;18.562;2023-09-18T14:59:12;10.30;;;6.00;;
57023;SDS011;42916;54.346;18.562;2023-09-18T15:01:38;10.10;;;6.40;;
57023;SDS011;42916;54.346;18.562;2023-09-18T15:04:09;8.00;;;6.70;;
57023;SDS011;42916;54.346;18.562;2023-09-18T15:06:36;7.80;;;7.00;;
57023;SDS011;42916;54.346;18.562;2023-09-18T15:09:03;11.70;;;6.80;;